Latest Coastal Weather Observations for Robe Airport

IDV60701

Issued at 8:32 pm EST Saturday 24 June 2017 (issued every 10 minutes, with the page automatically refreshed every 10 minutes)

About coastal observations | Map of coastal stations | Coastal observations for VIC | Marine services | Other Formats
Station Details ID: 026105 Name: ROBE AIRFIELD Lat: -37.18 Lon: 139.81 Height: 3.0 m
Data from the previous 72 hours. | See also: Recent months at Robe Airport
Date/Time
EST
Temp
°C
Wind Pressure Rain since
9am
mm
Weather Cloud Vis
km
Sea
Height
m
Swell
Dir  Spd
kts
Gust
kts
hPa Trend Height
m
Period
s
Dir
24/08:30pm 9.8 W 2 3 1018.3 - 0.4 - - - - - - -
24/08:00pm 10.6 W 3 5 1018.5 - 0.0 - - - - - - -
24/07:30pm 10.6 WSW 3 5 1018.4 - 0.0 - - - - - - -
24/07:00pm 11.3 WSW 7 13 1018.4 - 0.0 - - - - - - -
24/06:30pm 11.6 WSW 6 11 1018.2 - 0.0 - - - - - - -
24/06:00pm 11.7 WSW 5 9 1018.2 - 0.0 - - - - - - -
24/05:30pm 11.6 W 4 6 1018.2 - 0.0 - - - - - - -
24/05:00pm 11.8 WSW 4 8 1018.3 - 0.0 - - - - - - -
24/04:30pm 11.9 WSW 6 10 1018.3 - 0.0 - - - - - - -
24/04:00pm 12.3 WSW 4 7 1018.3 - 0.0 - - - - - - -
24/03:30pm 12.7 WSW 5 9 1018.3 - 0.0 - - - - - - -
24/03:00pm 12.7 WSW 6 10 1018.2 - 0.0 - - - - - - -
24/02:30pm 12.9 WSW 7 11 1018.2 - 0.0 - - - - - - -
24/02:00pm 12.5 WSW 8 13 1018.3 - 0.0 - - - - - - -
24/01:30pm 13.0 WSW 4 7 1018.6 - 0.0 - - - - - - -
24/01:00pm 12.6 WSW 5 8 1019.1 - 0.0 - - - - - - -
24/12:30pm 12.7 SW 8 12 1019.4 - 0.0 - - - - - - -
24/12:00pm 12.6 WSW 5 9 1020.0 - 0.0 - - - - - - -
24/11:30am 12.5 SW 5 8 1020.2 - 0.0 - - - - - - -
24/11:00am 12.3 SW 4 8 1020.6 - 0.0 - - - - - - -
24/10:30am 12.0 SSW 7 9 1020.5 - 0.0 - - - - - - -
24/10:00am 11.7 SSW 6 11 1020.2 - 0.0 - - - - - - -
24/09:30am 11.2 SSW 6 10 1020.1 - 1.8 - - - - - - -
24/09:00am 9.0 WSW 1 5 1019.9 - 1.8 - - - - - - -
24/08:30am 7.8 CALM 0 3 1019.8 - 1.8 - - - - - - -
24/08:00am 7.2 CALM 0 1 1019.6 - 1.8 - - - - - - -
24/07:30am 8.4 CALM 0 2 1019.4 - 1.8 - - - - - - -
24/07:00am 9.1 S 3 5 1019.3 - 1.8 - - - - - - -
24/06:30am 9.0 S 3 3 1018.9 - 1.8 - - - - - - -
24/06:00am 9.2 S 4 4 1018.8 - 1.8 - - - - - - -
24/05:30am 10.3 S 7 10 1018.5 - 1.8 - - - - - - -
24/05:00am 10.3 S 5 7 1018.3 - 1.8 - - - - - - -
24/04:30am 10.7 S 8 11 1018.3 - 1.8 - - - - - - -
24/04:00am 10.6 SSW 8 10 1018.4 - 1.8 - - - - - - -
24/03:30am 10.3 SSW 5 7 1018.3 - 1.8 - - - - - - -
24/03:00am 10.0 S 2 3 1018.2 - 1.8 - - - - - - -
24/02:30am 10.2 SSE 5 6 1018.0 - 1.8 - - - - - - -
24/02:00am 10.1 SSE 5 7 1018.0 - 1.8 - - - - - - -
24/01:30am 10.4 SSE 2 3 1018.0 - 1.8 - - - - - - -
24/01:00am 10.5 SSE 6 9 1018.0 - 1.8 - - - - - - -
24/12:30am 10.2 S 7 8 1017.9 - 1.8 - - - - - - -
24/12:00am 10.9 SSW 9 13 1018.0 - 1.8 - - - - - - -
 
Date/Time
EST
Temp
°C
Wind Pressure Rain since
9am
mm
Weather Cloud Vis
km
Sea
Height
m
Swell
Dir  Spd
kts
Gust
kts
hPa Trend Height
m
Period
s
Dir
23/11:30pm 11.2 SSW 7 10 1017.8 - 1.8 - - - - - - -
23/11:00pm 11.5 SSW 8 11 1017.8 - 1.8 - - - - - - -
23/10:30pm 12.6 SSW 10 15 1017.6 - 1.8 - - - - - - -
23/10:00pm 12.6 SW 7 11 1017.5 - 1.8 - - - - - - -
23/09:30pm 12.3 SW 7 11 1017.3 - 1.8 - - - - - - -
23/09:00pm 12.8 SW 9 15 1017.2 - 1.8 - - - - - - -
23/08:30pm 12.5 SW 9 14 1017.0 - 1.8 - - - - - - -
23/08:00pm 12.2 WSW 3 5 1016.8 - 1.6 - - - - - - -
23/07:30pm 12.9 SW 8 15 1016.8 - 1.4 - - - - - - -
23/07:00pm 12.9 SW 8 12 1016.3 - 1.2 - - - - - - -
23/06:30pm 14.2 WSW 8 13 1016.0 - 1.2 - - - - - - -
23/06:00pm 14.0 WSW 8 13 1015.7 - 1.2 - - - - - - -
23/05:30pm 13.7 WSW 6 9 1015.5 - 1.2 - - - - - - -
23/05:00pm 14.7 WSW 6 11 1015.2 - 1.2 - - - - - - -
23/04:30pm 14.8 WSW 6 14 1015.0 - 1.2 - - - - - - -
23/04:00pm 15.1 WSW 7 13 1015.2 - 1.2 - - - - - - -
23/03:30pm 15.7 WSW 8 13 1015.2 - 1.2 - - - - - - -
23/03:00pm 15.3 WNW 8 12 1014.9 - 1.2 - - - - - - -
23/02:30pm 17.1 WSW 9 17 1015.0 - 1.2 - - - - - - -
23/02:00pm 16.5 W 10 18 1015.1 - 1.2 - - - - - - -
23/01:30pm 16.3 WNW 8 12 1015.1 - 1.0 - - - - - - -
23/01:00pm 15.7 WNW 7 11 1015.2 - 1.0 - - - - - - -
23/12:30pm 14.7 W 7 10 1015.8 - 1.0 - - - - - - -
23/12:00pm 14.0 W 7 10 1016.3 - 1.0 - - - - - - -
23/11:30am 13.3 W 9 13 1016.7 - 1.0 - - - - - - -
23/11:00am 13.2 W 8 14 1016.8 - 1.0 - - - - - - -
23/10:30am 13.6 WSW 6 10 1016.8 - 0.2 - - - - - - -
23/10:00am 14.4 WSW 9 18 1017.1 - 0.0 - - - - - - -
23/09:30am 13.5 W 4 7 1017.0 - 0.0 - - - - - - -
23/09:00am 12.7 WSW 6 11 1017.1 - 0.0 - - - - - - -
23/08:30am 10.6 N 5 6 1016.6 - 0.0 - - - - - - -
23/08:00am 10.2 N 5 7 1016.5 - 0.0 - - - - - - -
23/07:30am 9.6 NNW 4 5 1016.4 - 0.0 - - - - - - -
23/07:00am 7.9 N 7 8 1016.5 - 0.0 - - - - - - -
23/06:30am 7.0 N 6 7 1016.5 - 0.0 - - - - - - -
23/06:00am 5.6 N 4 4 1016.6 - 0.0 - - - - - - -
23/05:30am 6.2 N 4 5 1016.6 - 0.0 - - - - - - -
23/05:00am 5.3 N 5 5 1016.7 - 0.0 - - - - - - -
23/04:30am 5.0 N 4 5 1017.0 - 0.0 - - - - - - -
23/04:00am 4.2 N 4 4 1017.3 - 0.0 - - - - - - -
23/03:30am 4.3 N 4 5 1017.7 - 0.0 - - - - - - -
23/03:00am 5.2 N 3 4 1017.9 - 0.0 - - - - - - -
23/02:30am 5.7 N 4 5 1018.1 - 0.0 - - - - - - -
23/02:00am 6.8 N 5 7 1018.2 - 0.0 - - - - - - -
23/01:30am 6.7 N 6 7 1018.6 - 0.0 - - - - - - -
23/01:00am 6.4 N 5 7 1019.0 - 0.0 - - - - - - -
23/12:30am 5.8 N 5 6 1019.5 - 0.0 - - - - - - -
23/12:00am 7.2 N 4 4 1020.0 - 0.0 - - - - - - -
 
Date/Time
EST
Temp
°C
Wind Pressure Rain since
9am
mm
Weather Cloud Vis
km
Sea
Height
m
Swell
Dir  Spd
kts
Gust
kts
hPa Trend Height
m
Period
s
Dir
22/11:30pm 8.6 N 7 9 1020.1 - 0.0 - - - - - - -
22/11:00pm 9.6 N 6 8 1020.3 - 0.0 - - - - - - -
22/10:30pm 9.6 N 7 9 1020.9 - 0.0 - - - - - - -
22/10:00pm 10.1 N 7 9 1020.9 - 0.0 - - - - - - -
22/09:30pm 8.9 NNE 6 7 1021.1 - 0.0 - - - - - - -
22/09:00pm 9.1 NNE 5 7 1021.4 - 0.0 - - - - - - -
22/08:30pm 8.7 NE 3 4 1021.4 - 0.0 - - - - - - -
22/08:00pm 8.8 NE 4 5 1021.6 - 0.0 - - - - - - -
22/07:30pm 8.8 NE 4 5 1021.6 - 0.0 - - - - - - -
22/07:00pm 9.1 CALM 0 0 1021.8 - 0.0 - - - - - - -
22/06:30pm 8.8 CALM 0 0 1021.7 - 0.0 - - - - - - -
22/06:00pm 10.4 CALM 0 0 1021.9 - 0.0 - - - - - - -
22/05:30pm 11.3 N 1 2 1021.9 - 0.0 - - - - - - -
22/05:00pm 11.9 N 4 5 1021.8 - 0.0 - - - - - - -
22/04:30pm 13.3 NNW 6 7 1022.0 - 0.0 - - - - - - -
22/04:00pm 13.6 NW 6 9 1022.1 - 0.0 - - - - - - -
22/03:30pm 15.2 NNW 10 14 1022.2 - 0.0 - - - - - - -
22/03:00pm 15.1 NNW 10 14 1022.5 - 0.0 - - - - - - -
22/02:30pm 14.9 NNW 10 13 1023.0 - 0.0 - - - - - - -
22/02:00pm 15.1 NNW 11 15 1023.4 - 0.0 - - - - - - -
22/01:30pm 15.0 NNW 12 16 1023.9 - 0.0 - - - - - - -
22/01:00pm 15.7 NNW 12 16 1024.3 - 0.0 - - - - - - -
22/12:30pm 15.7 NNW 13 16 1024.9 - 0.0 - - - - - - -
22/12:00pm 15.7 NNW 12 16 1025.4 - 0.0 - - - - - - -
22/11:30am 15.3 NNW 11 15 1026.0 - 0.0 - - - - - - -
22/11:00am 14.9 NNW 9 12 1026.5 - 0.0 - - - - - - -
22/10:30am 13.6 NNW 7 10 1026.6 - 0.0 - - - - - - -
22/10:00am 11.3 N 6 7 1026.5 - 0.0 - - - - - - -
22/09:30am 10.3 N 5 6 1026.5 - 0.0 - - - - - - -
22/09:00am 8.3 N 3 4 1026.6 - 0.0 - - - - - - -
22/08:30am 7.1 N 3 3 1026.4 - 0.0 - - - - - - -
22/08:00am 7.8 NNE 4 6 1025.9 - 0.0 - - - - - - -
22/07:30am 8.4 NNE 6 9 1025.8 - 0.0 - - - - - - -
22/07:00am 8.8 NNE 4 6 1026.0 - 0.0 - - - - - - -
22/06:30am 8.7 NNE 4 5 1026.0 - 0.0 - - - - - - -
22/06:00am 8.6 CALM 0 0 1025.9 - 0.0 - - - - - - -
22/05:30am 8.5 ESE 3 3 1026.0 - 0.0 - - - - - - -
22/05:00am 8.3 ESE 1 2 1026.2 - 0.0 - - - - - - -
22/04:30am 7.9 CALM 0 0 1026.1 - 0.0 - - - - - - -
22/04:00am 7.9 CALM 0 1 1026.2 - 0.0 - - - - - - -
22/03:30am 7.9 ESE 2 3 1026.5 - 0.0 - - - - - - -
22/03:00am 8.5 ESE 2 3 1026.8 - 0.0 - - - - - - -
22/02:30am 8.5 ESE 3 3 1026.8 - 0.0 - - - - - - -
22/02:00am 8.4 ESE 2 3 1026.8 - 0.0 - - - - - - -
22/01:30am 8.5 ESE 1 2 1027.1 - 0.0 - - - - - - -
22/01:00am 8.7 ESE 2 4 1027.3 - 0.0 - - - - - - -
22/12:30am 8.6 ESE 4 5 1027.3 - 0.0 - - - - - - -
22/12:00am 8.3 SE 3 4 1027.6 - 0.0 - - - - - - -
 
Date/Time
EST
Temp
°C
Wind Pressure Rain since
9am
mm
Weather Cloud Vis
km
Sea
Height
m
Swell
Dir  Spd
kts
Gust
kts
hPa Trend Height
m
Period
s
Dir
21/11:30pm 8.6 SE 4 5 1027.8 - 0.0 - - - - - - -
21/11:00pm 8.4 SE 3 5 1027.9 - 0.0 - - - - - - -
21/10:30pm 8.8 SE 4 5 1028.2 - 0.0 - - - - - - -
21/10:00pm 9.0 SE 4 6 1028.3 - 0.0 - - - - - - -
21/09:30pm 9.7 SE 5 7 1028.4 - 0.0 - - - - - - -

Other Formats:

Comma delimited format used in spreadsheet applications
http://www.bom.gov.au/fwo/IDV60701/IDV60701.95816.axf

JavaScript Object Notation format (JSON) in row-major order
http://www.bom.gov.au/fwo/IDV60701/IDV60701.95816.json